sensor_id;sensor_type;location;lat;lon;timestamp;pressure;altitude;pressure_sealevel;temperature;humidity
62462;BME280;48511;38.664;-9.202;2022-08-03T00:00:46;100391.22;;;18.96;85.54
62462;BME280;48511;38.664;-9.202;2022-08-03T00:02:46;100384.72;;;19.00;85.32
62462;BME280;48511;38.664;-9.202;2022-08-03T00:04:47;100380.41;;;18.99;85.46
62462;BME280;48511;38.664;-9.202;2022-08-03T00:06:48;100378.22;;;19.04;85.53
62462;BME280;48511;38.664;-9.202;2022-08-03T00:08:48;100366.38;;;18.98;85.62
62462;BME280;48511;38.664;-9.202;2022-08-03T00:10:49;100372.47;;;18.99;85.33
62462;BME280;48511;38.664;-9.202;2022-08-03T00:12:50;100363.47;;;19.01;85.17
62462;BME280;48511;38.664;-9.202;2022-08-03T00:14:51;100351.72;;;18.94;85.47
62462;BME280;48511;38.664;-9.202;2022-08-03T00:16:51;100352.00;;;18.91;85.27
62462;BME280;48511;38.664;-9.202;2022-08-03T00:18:52;100349.22;;;18.93;85.56
62462;BME280;48511;38.664;-9.202;2022-08-03T00:20:53;100348.72;;;18.88;86.10
62462;BME280;48511;38.664;-9.202;2022-08-03T00:22:53;100348.41;;;18.92;85.41
62462;BME280;48511;38.664;-9.202;2022-08-03T00:24:54;100343.94;;;18.93;85.65
62462;BME280;48511;38.664;-9.202;2022-08-03T00:26:55;100353.06;;;18.89;85.99
62462;BME280;48511;38.664;-9.202;2022-08-03T00:28:55;100338.66;;;18.93;85.92
62462;BME280;48511;38.664;-9.202;2022-08-03T00:30:56;100345.38;;;18.85;86.15
62462;BME280;48511;38.664;-9.202;2022-08-03T00:32:57;100341.75;;;18.86;86.40
62462;BME280;48511;38.664;-9.202;2022-08-03T00:34:58;100348.59;;;18.89;86.14
62462;BME280;48511;38.664;-9.202;2022-08-03T00:36:59;100351.66;;;18.73;87.13
62462;BME280;48511;38.664;-9.202;2022-08-03T00:39:00;100352.09;;;19.01;85.99
62462;BME280;48511;38.664;-9.202;2022-08-03T00:41:00;100354.75;;;18.90;86.55
62462;BME280;48511;38.664;-9.202;2022-08-03T00:43:03;100347.03;;;18.98;86.48
62462;BME280;48511;38.664;-9.202;2022-08-03T00:45:05;100352.59;;;18.83;87.33
62462;BME280;48511;38.664;-9.202;2022-08-03T00:47:06;100340.34;;;18.94;86.83
62462;BME280;48511;38.664;-9.202;2022-08-03T00:49:07;100339.38;;;18.83;87.02
62462;BME280;48511;38.664;-9.202;2022-08-03T00:51:08;100343.72;;;18.84;87.23
62462;BME280;48511;38.664;-9.202;2022-08-03T00:53:10;100338.94;;;18.78;87.81
62462;BME280;48511;38.664;-9.202;2022-08-03T00:55:14;100337.50;;;18.74;87.81
62462;BME280;48511;38.664;-9.202;2022-08-03T00:57:15;100327.91;;;18.73;87.60
62462;BME280;48511;38.664;-9.202;2022-08-03T00:59:17;100334.13;;;18.72;87.53
62462;BME280;48511;38.664;-9.202;2022-08-03T01:01:18;100335.19;;;18.81;87.34
62462;BME280;48511;38.664;-9.202;2022-08-03T01:03:18;100341.53;;;19.01;86.04
62462;BME280;48511;38.664;-9.202;2022-08-03T01:05:20;100339.19;;;19.08;85.58
62462;BME280;48511;38.664;-9.202;2022-08-03T01:09:59;100321.28;;;18.79;86.93
62462;BME280;48511;38.664;-9.202;2022-08-03T01:12:09;100320.59;;;18.77;87.38
62462;BME280;48511;38.664;-9.202;2022-08-03T01:14:19;100313.94;;;18.82;86.98
62462;BME280;48511;38.664;-9.202;2022-08-03T01:16:27;100310.13;;;18.75;87.10
62462;BME280;48511;38.664;-9.202;2022-08-03T01:18:51;100318.16;;;18.74;87.61
62462;BME280;48511;38.664;-9.202;2022-08-03T01:20:55;100322.84;;;18.70;87.65
62462;BME280;48511;38.664;-9.202;2022-08-03T01:23:09;100320.84;;;18.62;88.24
62462;BME280;48511;38.664;-9.202;2022-08-03T01:29:59;100313.13;;;18.82;86.85
62462;BME280;48511;38.664;-9.202;2022-08-03T01:32:07;100306.69;;;18.63;88.00
62462;BME280;48511;38.664;-9.202;2022-08-03T01:34:11;100307.44;;;18.54;88.74
62462;BME280;48511;38.664;-9.202;2022-08-03T01:36:17;100306.84;;;18.50;88.94
62462;BME280;48511;38.664;-9.202;2022-08-03T01:38:30;100309.28;;;18.42;89.33
62462;BME280;48511;38.664;-9.202;2022-08-03T01:40:33;100324.66;;;18.37;89.61
62462;BME280;48511;38.664;-9.202;2022-08-03T01:42:36;100316.25;;;18.32;90.08
62462;BME280;48511;38.664;-9.202;2022-08-03T01:44:40;100316.72;;;18.37;90.10
62462;BME280;48511;38.664;-9.202;2022-08-03T01:46:42;100311.94;;;18.31;90.37
62462;BME280;48511;38.664;-9.202;2022-08-03T01:48:45;100317.75;;;18.57;89.06
62462;BME280;48511;38.664;-9.202;2022-08-03T01:50:48;100308.88;;;18.58;89.07
62462;BME280;48511;38.664;-9.202;2022-08-03T01:52:49;100308.53;;;18.51;89.27
62462;BME280;48511;38.664;-9.202;2022-08-03T01:54:52;100309.03;;;18.45;89.85
62462;BME280;48511;38.664;-9.202;2022-08-03T01:56:56;100308.06;;;18.46;90.11
62462;BME280;48511;38.664;-9.202;2022-08-03T01:58:59;100309.72;;;18.59;89.29
62462;BME280;48511;38.664;-9.202;2022-08-03T02:01:03;100314.06;;;18.48;89.94
62462;BME280;48511;38.664;-9.202;2022-08-03T02:03:05;100304.91;;;18.64;89.38
62462;BME280;48511;38.664;-9.202;2022-08-03T02:05:08;100309.44;;;18.73;88.52
62462;BME280;48511;38.664;-9.202;2022-08-03T02:07:11;100310.19;;;18.64;88.81
62462;BME280;48511;38.664;-9.202;2022-08-03T02:09:14;100311.91;;;18.53;89.43
62462;BME280;48511;38.664;-9.202;2022-08-03T02:11:15;100317.41;;;18.50;89.92
62462;BME280;48511;38.664;-9.202;2022-08-03T02:13:18;100309.03;;;18.45;89.87
62462;BME280;48511;38.664;-9.202;2022-08-03T02:15:21;100314.56;;;18.42;90.04
62462;BME280;48511;38.664;-9.202;2022-08-03T02:17:24;100308.53;;;18.51;89.40
62462;BME280;48511;38.664;-9.202;2022-08-03T02:19:26;100305.06;;;18.51;89.08
62462;BME280;48511;38.664;-9.202;2022-08-03T02:21:31;100315.22;;;18.56;89.05
62462;BME280;48511;38.664;-9.202;2022-08-03T02:23:33;100310.81;;;18.56;88.85
62462;BME280;48511;38.664;-9.202;2022-08-03T02:25:46;100318.97;;;18.53;89.12
62462;BME280;48511;38.664;-9.202;2022-08-03T02:27:51;100316.72;;;18.48;89.37
62462;BME280;48511;38.664;-9.202;2022-08-03T02:29:59;100315.72;;;18.49;89.62
62462;BME280;48511;38.664;-9.202;2022-08-03T02:32:02;100318.75;;;18.45;89.46
62462;BME280;48511;38.664;-9.202;2022-08-03T02:34:08;100311.53;;;18.47;89.64
62462;BME280;48511;38.664;-9.202;2022-08-03T02:36:12;100312.88;;;18.41;89.69
62462;BME280;48511;38.664;-9.202;2022-08-03T02:38:15;100310.38;;;18.40;90.06
62462;BME280;48511;38.664;-9.202;2022-08-03T02:40:19;100318.38;;;18.38;90.13
62462;BME280;48511;38.664;-9.202;2022-08-03T02:42:22;100314.56;;;18.42;90.28
62462;BME280;48511;38.664;-9.202;2022-08-03T02:44:25;100310.38;;;18.40;90.26
62462;BME280;48511;38.664;-9.202;2022-08-03T02:46:32;100313.81;;;18.51;89.74
62462;BME280;48511;38.664;-9.202;2022-08-03T02:48:36;100309.03;;;18.45;90.18
62462;BME280;48511;38.664;-9.202;2022-08-03T02:50:38;100318.16;;;18.41;89.96
62462;BME280;48511;38.664;-9.202;2022-08-03T02:52:41;100318.91;;;18.32;90.96
62462;BME280;48511;38.664;-9.202;2022-08-03T02:54:45;100320.81;;;18.30;91.13
62462;BME280;48511;38.664;-9.202;2022-08-03T02:56:47;100318.91;;;18.32;91.52
62462;BME280;48511;38.664;-9.202;2022-08-03T02:58:49;100316.97;;;18.23;91.67
62462;BME280;48511;38.664;-9.202;2022-08-03T03:00:51;100317.72;;;18.25;91.60
62462;BME280;48511;38.664;-9.202;2022-08-03T03:02:57;100320.47;;;18.23;91.69
62462;BME280;48511;38.664;-9.202;2022-08-03T03:04:58;100312.09;;;18.18;91.89
62462;BME280;48511;38.664;-9.202;2022-08-03T03:07:01;100315.28;;;18.33;91.30
62462;BME280;48511;38.664;-9.202;2022-08-03T03:09:02;100317.22;;;18.19;91.54
62462;BME280;48511;38.664;-9.202;2022-08-03T03:11:04;100319.38;;;18.26;91.62
62462;BME280;48511;38.664;-9.202;2022-08-03T03:13:08;100323.78;;;18.36;90.73
62462;BME280;48511;38.664;-9.202;2022-08-03T03:15:09;100322.09;;;18.35;90.77
62462;BME280;48511;38.664;-9.202;2022-08-03T03:17:11;100326.44;;;18.36;90.87
62462;BME280;48511;38.664;-9.202;2022-08-03T03:19:15;100327.78;;;18.31;91.33
62462;BME280;48511;38.664;-9.202;2022-08-03T03:21:18;100328.75;;;18.18;91.95
62462;BME280;48511;38.664;-9.202;2022-08-03T03:23:21;100323.25;;;18.22;92.06
62462;BME280;48511;38.664;-9.202;2022-08-03T03:25:23;100333.41;;;18.15;92.24
62462;BME280;48511;38.664;-9.202;2022-08-03T03:27:24;100329.09;;;18.25;91.79
62462;BME280;48511;38.664;-9.202;2022-08-03T03:29:25;100324.66;;;18.26;91.86
62462;BME280;48511;38.664;-9.202;2022-08-03T03:31:26;100322.97;;;18.25;91.98
62462;BME280;48511;38.664;-9.202;2022-08-03T03:33:27;100322.88;;;18.15;92.28
62462;BME280;48511;38.664;-9.202;2022-08-03T03:35:28;100317.81;;;18.34;91.97
62462;BME280;48511;38.664;-9.202;2022-08-03T03:37:29;100323.81;;;18.25;92.07
62462;BME280;48511;38.664;-9.202;2022-08-03T03:39:30;100321.53;;;18.32;91.56
62462;BME280;48511;38.664;-9.202;2022-08-03T03:41:31;100320.56;;;18.33;91.58
62462;BME280;48511;38.664;-9.202;2022-08-03T03:43:32;100325.22;;;18.41;91.42
62462;BME280;48511;38.664;-9.202;2022-08-03T03:45:34;100321.50;;;18.43;91.12
62462;BME280;48511;38.664;-9.202;2022-08-03T03:47:36;100325.59;;;18.36;91.54
62462;BME280;48511;38.664;-9.202;2022-08-03T03:49:36;100327.97;;;18.39;91.74
62462;BME280;48511;38.664;-9.202;2022-08-03T03:51:37;100330.41;;;18.42;91.67
62462;BME280;48511;38.664;-9.202;2022-08-03T03:53:38;100321.75;;;18.40;92.08
62462;BME280;48511;38.664;-9.202;2022-08-03T03:55:40;100326.78;;;18.43;91.92
62462;BME280;48511;38.664;-9.202;2022-08-03T03:57:41;100327.84;;;18.41;92.42
62462;BME280;48511;38.664;-9.202;2022-08-03T03:59:42;100318.66;;;18.35;93.05
62462;BME280;48511;38.664;-9.202;2022-08-03T04:01:43;100322.00;;;18.37;93.04
62462;BME280;48511;38.664;-9.202;2022-08-03T04:03:44;100320.06;;;18.39;92.90
62462;BME280;48511;38.664;-9.202;2022-08-03T04:05:45;100328.22;;;18.47;92.35
62462;BME280;48511;38.664;-9.202;2022-08-03T04:08:09;100326.31;;;18.38;93.31
62462;BME280;48511;38.664;-9.202;2022-08-03T04:10:32;100331.09;;;18.44;93.53
62462;BME280;48511;38.664;-9.202;2022-08-03T04:12:56;100325.84;;;18.33;94.02
62462;BME280;48511;38.664;-9.202;2022-08-03T04:14:59;100329.41;;;18.43;93.89
62462;BME280;48511;38.664;-9.202;2022-08-03T04:17:04;100323.88;;;18.58;92.68
62462;BME280;48511;38.664;-9.202;2022-08-03T04:19:14;100320.19;;;18.49;93.33
62462;BME280;48511;38.664;-9.202;2022-08-03T04:21:18;100323.50;;;18.62;92.57
62462;BME280;48511;38.664;-9.202;2022-08-03T04:23:24;100326.97;;;18.63;92.43
62462;BME280;48511;38.664;-9.202;2022-08-03T04:25:27;100323.44;;;18.74;91.91
62462;BME280;48511;38.664;-9.202;2022-08-03T04:27:33;100336.13;;;18.59;92.82
62462;BME280;48511;38.664;-9.202;2022-08-03T04:29:36;100326.97;;;18.63;92.28
62462;BME280;48511;38.664;-9.202;2022-08-03T04:31:40;100328.91;;;18.61;92.78
62462;BME280;48511;38.664;-9.202;2022-08-03T04:33:43;100336.31;;;18.67;92.40
62462;BME280;48511;38.664;-9.202;2022-08-03T04:35:46;100330.91;;;18.68;92.10
62462;BME280;48511;38.664;-9.202;2022-08-03T04:37:50;100337.03;;;18.69;92.67
62462;BME280;48511;38.664;-9.202;2022-08-03T04:39:52;100337.53;;;18.63;92.87
62462;BME280;48511;38.664;-9.202;2022-08-03T04:41:57;100335.59;;;18.65;93.03
62462;BME280;48511;38.664;-9.202;2022-08-03T04:44:00;100331.69;;;18.92;91.75
62462;BME280;48511;38.664;-9.202;2022-08-03T04:46:01;100336.97;;;18.92;91.81
62462;BME280;48511;38.664;-9.202;2022-08-03T04:48:04;100341.06;;;18.96;91.61
62462;BME280;48511;38.664;-9.202;2022-08-03T04:50:06;100347.31;;;18.83;92.39
62462;BME280;48511;38.664;-9.202;2022-08-03T04:52:08;100345.03;;;18.79;93.12
62462;BME280;48511;38.664;-9.202;2022-08-03T04:54:12;100349.63;;;18.77;93.18
62462;BME280;48511;38.664;-9.202;2022-08-03T04:56:13;100344.66;;;18.83;92.50
62462;BME280;48511;38.664;-9.202;2022-08-03T04:58:14;100348.84;;;18.86;92.46
62462;BME280;48511;38.664;-9.202;2022-08-03T05:00:15;100346.84;;;18.78;93.27
62462;BME280;48511;38.664;-9.202;2022-08-03T05:02:17;100338.03;;;18.89;92.58
62462;BME280;48511;38.664;-9.202;2022-08-03T05:04:18;100349.03;;;19.06;91.99
62462;BME280;48511;38.664;-9.202;2022-08-03T05:06:19;100345.63;;;18.94;92.88
62462;BME280;48511;38.664;-9.202;2022-08-03T05:08:20;100350.53;;;18.98;92.36
62462;BME280;48511;38.664;-9.202;2022-08-03T05:10:21;100357.41;;;18.78;93.44
62462;BME280;48511;38.664;-9.202;2022-08-03T05:12:22;100348.16;;;18.73;93.54
62462;BME280;48511;38.664;-9.202;2022-08-03T05:14:23;100344.25;;;18.67;93.87
62462;BME280;48511;38.664;-9.202;2022-08-03T05:16:23;100345.91;;;18.68;94.65
62462;BME280;48511;38.664;-9.202;2022-08-03T05:18:25;100358.38;;;18.77;94.03
62462;BME280;48511;38.664;-9.202;2022-08-03T05:20:25;100358.56;;;18.97;92.75
62462;BME280;48511;38.664;-9.202;2022-08-03T05:22:26;100360.03;;;18.90;92.85
62462;BME280;48511;38.664;-9.202;2022-08-03T05:24:27;100357.75;;;18.74;93.69
62462;BME280;48511;38.664;-9.202;2022-08-03T05:26:27;100367.66;;;19.04;92.18
62462;BME280;48511;38.664;-9.202;2022-08-03T05:28:28;100358.09;;;18.92;92.83
62462;BME280;48511;38.664;-9.202;2022-08-03T05:30:29;100360.50;;;18.83;92.88
62462;BME280;48511;38.664;-9.202;2022-08-03T05:32:30;100367.22;;;18.88;92.45
62462;BME280;48511;38.664;-9.202;2022-08-03T05:34:30;100364.34;;;18.91;91.97
62462;BME280;48511;38.664;-9.202;2022-08-03T05:36:31;100369.56;;;19.02;91.44
62462;BME280;48511;38.664;-9.202;2022-08-03T05:38:32;100363.16;;;18.95;91.51
62462;BME280;48511;38.664;-9.202;2022-08-03T05:40:33;100369.47;;;19.04;91.09
62462;BME280;48511;38.664;-9.202;2022-08-03T05:42:36;100365.78;;;18.95;91.76
62462;BME280;48511;38.664;-9.202;2022-08-03T05:44:37;100374.91;;;18.91;92.26
62462;BME280;48511;38.664;-9.202;2022-08-03T05:46:38;100370.34;;;18.93;91.92
62462;BME280;48511;38.664;-9.202;2022-08-03T05:48:39;100367.69;;;18.93;92.05
62462;BME280;48511;38.664;-9.202;2022-08-03T05:50:40;100365.97;;;19.03;91.46
62462;BME280;48511;38.664;-9.202;2022-08-03T05:52:41;100369.34;;;19.05;91.27
62462;BME280;48511;38.664;-9.202;2022-08-03T05:54:42;100369.13;;;18.97;91.79
62462;BME280;48511;38.664;-9.202;2022-08-03T05:56:43;100358.09;;;18.92;92.10
62462;BME280;48511;38.664;-9.202;2022-08-03T05:58:45;100361.34;;;18.84;92.92
62462;BME280;48511;38.664;-9.202;2022-08-03T06:00:46;100361.91;;;18.99;92.05
62462;BME280;48511;38.664;-9.202;2022-08-03T06:02:47;100355.41;;;19.03;92.21
62462;BME280;48511;38.664;-9.202;2022-08-03T06:04:47;100364.75;;;19.07;91.38
62462;BME280;48511;38.664;-9.202;2022-08-03T06:06:48;100366.91;;;19.13;91.57
62462;BME280;48511;38.664;-9.202;2022-08-03T06:08:50;100372.94;;;19.04;91.99
62462;BME280;48511;38.664;-9.202;2022-08-03T06:10:51;100379.63;;;19.08;91.46
62462;BME280;48511;38.664;-9.202;2022-08-03T06:12:51;100380.38;;;19.31;90.26
62462;BME280;48511;38.664;-9.202;2022-08-03T06:14:52;100386.34;;;19.12;91.11
62462;BME280;48511;38.664;-9.202;2022-08-03T06:16:53;100382.69;;;19.25;90.28
62462;BME280;48511;38.664;-9.202;2022-08-03T06:18:53;100392.72;;;19.10;91.14
62462;BME280;48511;38.664;-9.202;2022-08-03T06:20:54;100401.19;;;19.25;90.42
62462;BME280;48511;38.664;-9.202;2022-08-03T06:22:55;100394.72;;;19.17;90.77
62462;BME280;48511;38.664;-9.202;2022-08-03T06:24:56;100393.31;;;19.13;91.10
62462;BME280;48511;38.664;-9.202;2022-08-03T06:26:58;100397.63;;;19.14;91.46
62462;BME280;48511;38.664;-9.202;2022-08-03T06:28:58;100405.28;;;19.17;91.07
62462;BME280;48511;38.664;-9.202;2022-08-03T06:30:59;100405.97;;;19.31;90.64
62462;BME280;48511;38.664;-9.202;2022-08-03T06:33:01;100406.59;;;19.23;91.13
62462;BME280;48511;38.664;-9.202;2022-08-03T06:35:02;100414.25;;;19.26;91.20
62462;BME280;48511;38.664;-9.202;2022-08-03T06:37:02;100409.72;;;19.28;90.97
62462;BME280;48511;38.664;-9.202;2022-08-03T06:39:03;100420.88;;;19.32;90.83
62462;BME280;48511;38.664;-9.202;2022-08-03T06:41:04;100424.66;;;19.39;90.17
62462;BME280;48511;38.664;-9.202;2022-08-03T06:43:06;100418.81;;;19.57;89.33
62462;BME280;48511;38.664;-9.202;2022-08-03T06:45:08;100424.50;;;19.73;88.58
62462;BME280;48511;38.664;-9.202;2022-08-03T06:47:09;100418.94;;;19.55;89.04
62462;BME280;48511;38.664;-9.202;2022-08-03T06:49:09;100419.66;;;19.78;87.85
62462;BME280;48511;38.664;-9.202;2022-08-03T06:51:10;100426.81;;;19.66;88.85
62462;BME280;48511;38.664;-9.202;2022-08-03T06:53:11;100429.94;;;19.81;87.94
62462;BME280;48511;38.664;-9.202;2022-08-03T06:55:12;100425.91;;;19.77;87.34
62462;BME280;48511;38.664;-9.202;2022-08-03T06:57:13;100435.75;;;19.75;88.09
62462;BME280;48511;38.664;-9.202;2022-08-03T06:59:16;100433.09;;;19.75;88.45
62462;BME280;48511;38.664;-9.202;2022-08-03T07:01:16;100429.03;;;19.82;87.72
62462;BME280;48511;38.664;-9.202;2022-08-03T07:03:17;100429.13;;;19.81;87.93
62462;BME280;48511;38.664;-9.202;2022-08-03T07:05:18;100433.66;;;19.90;87.54
62462;BME280;48511;38.664;-9.202;2022-08-03T07:07:18;100430.81;;;20.03;86.66
62462;BME280;48511;38.664;-9.202;2022-08-03T07:09:19;100433.91;;;20.08;85.94
62462;BME280;48511;38.664;-9.202;2022-08-03T07:11:20;100439.75;;;20.12;85.87
62462;BME280;48511;38.664;-9.202;2022-08-03T07:13:21;100432.41;;;20.15;85.54
62462;BME280;48511;38.664;-9.202;2022-08-03T07:15:22;100432.00;;;20.20;85.24
62462;BME280;48511;38.664;-9.202;2022-08-03T07:17:23;100427.72;;;20.29;84.15
62462;BME280;48511;38.664;-9.202;2022-08-03T07:19:23;100429.41;;;20.30;84.44
62462;BME280;48511;38.664;-9.202;2022-08-03T07:21:25;100432.72;;;20.63;83.15
62462;BME280;48511;38.664;-9.202;2022-08-03T07:23:26;100431.94;;;20.72;82.41
62462;BME280;48511;38.664;-9.202;2022-08-03T07:25:26;100428.69;;;20.69;82.29
62462;BME280;48511;38.664;-9.202;2022-08-03T07:27:27;100436.75;;;20.67;82.84
62462;BME280;48511;38.664;-9.202;2022-08-03T07:29:29;100437.13;;;20.84;81.88
62462;BME280;48511;38.664;-9.202;2022-08-03T07:31:29;100436.69;;;20.78;81.51
62462;BME280;48511;38.664;-9.202;2022-08-03T07:33:30;100427.91;;;20.88;81.01
62462;BME280;48511;38.664;-9.202;2022-08-03T07:35:31;100431.53;;;20.77;81.24
62462;BME280;48511;38.664;-9.202;2022-08-03T07:37:32;100435.97;;;20.76;80.90
62462;BME280;48511;38.664;-9.202;2022-08-03T07:39:33;100441.03;;;20.79;80.50
62462;BME280;48511;38.664;-9.202;2022-08-03T07:41:33;100435.00;;;20.77;81.11
62462;BME280;48511;38.664;-9.202;2022-08-03T07:43:34;100437.41;;;20.80;80.57
62462;BME280;48511;38.664;-9.202;2022-08-03T07:45:35;100441.44;;;20.85;80.08
62462;BME280;48511;38.664;-9.202;2022-08-03T07:47:35;100445.50;;;20.89;79.68
62462;BME280;48511;38.664;-9.202;2022-08-03T07:49:40;100440.91;;;20.91;80.09
62462;BME280;48511;38.664;-9.202;2022-08-03T07:51:40;100449.38;;;20.85;79.94
62462;BME280;48511;38.664;-9.202;2022-08-03T07:53:41;100452.47;;;20.90;79.77
62462;BME280;48511;38.664;-9.202;2022-08-03T07:55:42;100459.56;;;20.89;78.97
62462;BME280;48511;38.664;-9.202;2022-08-03T07:57:43;100450.06;;;20.77;79.54
62462;BME280;48511;38.664;-9.202;2022-08-03T07:59:45;100448.53;;;20.84;79.49
62462;BME280;48511;38.664;-9.202;2022-08-03T08:01:46;100457.44;;;20.73;79.63
62462;BME280;48511;38.664;-9.202;2022-08-03T08:03:48;100451.81;;;20.67;79.89
62462;BME280;48511;38.664;-9.202;2022-08-03T08:05:49;100454.94;;;20.72;80.33
62462;BME280;48511;38.664;-9.202;2022-08-03T08:07:49;100458.63;;;21.00;79.64
62462;BME280;48511;38.664;-9.202;2022-08-03T08:09:50;100451.13;;;21.15;78.63
62462;BME280;48511;38.664;-9.202;2022-08-03T08:11:51;100459.47;;;21.30;77.03
62462;BME280;48511;38.664;-9.202;2022-08-03T08:13:52;100460.31;;;21.40;76.90
62462;BME280;48511;38.664;-9.202;2022-08-03T08:15:52;100471.22;;;21.67;75.70
62462;BME280;48511;38.664;-9.202;2022-08-03T08:17:57;100470.25;;;21.68;75.33
62462;BME280;48511;38.664;-9.202;2022-08-03T08:19:58;100462.81;;;21.81;74.24
62462;BME280;48511;38.664;-9.202;2022-08-03T08:21:58;100465.16;;;21.94;73.75
62462;BME280;48511;38.664;-9.202;2022-08-03T08:23:59;100468.28;;;22.27;73.21
62462;BME280;48511;38.664;-9.202;2022-08-03T08:26:00;100460.69;;;22.42;71.71
62462;BME280;48511;38.664;-9.202;2022-08-03T08:28:01;100457.03;;;22.53;70.59
62462;BME280;48511;38.664;-9.202;2022-08-03T08:30:04;100460.09;;;22.58;70.17
62462;BME280;48511;38.664;-9.202;2022-08-03T08:32:05;100457.19;;;22.51;70.59
62462;BME280;48511;38.664;-9.202;2022-08-03T08:34:06;100451.41;;;22.56;70.42
62462;BME280;48511;38.664;-9.202;2022-08-03T08:36:07;100464.47;;;22.49;70.34
62462;BME280;48511;38.664;-9.202;2022-08-03T08:38:07;100466.28;;;22.49;70.13
62462;BME280;48511;38.664;-9.202;2022-08-03T08:40:09;100458.88;;;22.52;70.18
62462;BME280;48511;38.664;-9.202;2022-08-03T08:42:10;100460.97;;;22.49;70.07
62462;BME280;48511;38.664;-9.202;2022-08-03T08:44:11;100465.13;;;22.79;68.94
62462;BME280;48511;38.664;-9.202;2022-08-03T08:46:12;100454.84;;;22.66;69.41
62462;BME280;48511;38.664;-9.202;2022-08-03T08:48:14;100459.44;;;22.74;69.39
62462;BME280;48511;38.664;-9.202;2022-08-03T08:50:19;100453.53;;;22.80;69.53
62462;BME280;48511;38.664;-9.202;2022-08-03T08:52:23;100458.28;;;23.04;68.38
62462;BME280;48511;38.664;-9.202;2022-08-03T08:54:25;100457.91;;;23.35;66.59
62462;BME280;48511;38.664;-9.202;2022-08-03T08:56:27;100456.13;;;23.36;66.83
62462;BME280;48511;38.664;-9.202;2022-08-03T08:58:32;100459.75;;;23.53;66.53
62462;BME280;48511;38.664;-9.202;2022-08-03T09:00:34;100452.88;;;23.68;65.84
62462;BME280;48511;38.664;-9.202;2022-08-03T09:02:35;100457.75;;;23.73;65.51
62462;BME280;48511;38.664;-9.202;2022-08-03T09:04:38;100457.13;;;23.79;64.82
62462;BME280;48511;38.664;-9.202;2022-08-03T09:06:39;100454.13;;;23.82;64.79
62462;BME280;48511;38.664;-9.202;2022-08-03T09:08:39;100462.09;;;24.00;64.06
62462;BME280;48511;38.664;-9.202;2022-08-03T09:10:40;100458.13;;;24.04;63.79
62462;BME280;48511;38.664;-9.202;2022-08-03T09:12:44;100460.91;;;23.95;64.13
62462;BME280;48511;38.664;-9.202;2022-08-03T09:14:45;100468.97;;;24.11;63.71
62462;BME280;48511;38.664;-9.202;2022-08-03T09:16:59;100456.97;;;24.07;64.29
62462;BME280;48511;38.664;-9.202;2022-08-03T09:19:12;100462.00;;;24.10;62.89
62462;BME280;48511;38.664;-9.202;2022-08-03T09:23:15;100471.16;;;24.42;62.15
62462;BME280;48511;38.664;-9.202;2022-08-03T09:25:17;100460.81;;;24.39;61.92
62462;BME280;48511;38.664;-9.202;2022-08-03T09:27:17;100462.84;;;24.19;62.48
62462;BME280;48511;38.664;-9.202;2022-08-03T09:29:19;100460.19;;;24.45;61.17
62462;BME280;48511;38.664;-9.202;2022-08-03T09:31:38;100462.59;;;24.30;61.69
62462;BME280;48511;38.664;-9.202;2022-08-03T09:33:48;100463.91;;;24.61;61.39
62462;BME280;48511;38.664;-9.202;2022-08-03T09:35:49;100464.53;;;24.54;61.26
62462;BME280;48511;38.664;-9.202;2022-08-03T09:38:17;100457.69;;;24.44;62.54
62462;BME280;48511;38.664;-9.202;2022-08-03T09:40:33;100457.84;;;24.42;62.53
62462;BME280;48511;38.664;-9.202;2022-08-03T09:42:35;100452.34;;;24.44;61.90
62462;BME280;48511;38.664;-9.202;2022-08-03T09:44:45;100461.69;;;24.56;62.12
62462;BME280;48511;38.664;-9.202;2022-08-03T09:46:49;100453.06;;;24.62;61.93
62462;BME280;48511;38.664;-9.202;2022-08-03T09:48:50;100452.28;;;24.70;61.06
62462;BME280;48511;38.664;-9.202;2022-08-03T09:50:59;100456.16;;;24.76;61.24
62462;BME280;48511;38.664;-9.202;2022-08-03T09:53:00;100450.03;;;24.92;60.89
62462;BME280;48511;38.664;-9.202;2022-08-03T09:55:07;100449.38;;;24.89;60.93
62462;BME280;48511;38.664;-9.202;2022-08-03T09:57:29;100444.19;;;24.88;60.85
62462;BME280;48511;38.664;-9.202;2022-08-03T09:59:33;100450.22;;;25.06;60.31
62462;BME280;48511;38.664;-9.202;2022-08-03T10:01:35;100461.25;;;25.28;59.67
62462;BME280;48511;38.664;-9.202;2022-08-03T10:03:38;100455.25;;;25.26;59.50
62462;BME280;48511;38.664;-9.202;2022-08-03T10:05:39;100449.63;;;25.37;59.23
62462;BME280;48511;38.664;-9.202;2022-08-03T10:07:48;100457.28;;;25.49;58.08
62462;BME280;48511;38.664;-9.202;2022-08-03T10:10:00;100457.75;;;25.28;59.55
62462;BME280;48511;38.664;-9.202;2022-08-03T10:12:11;100465.13;;;25.50;58.08
62462;BME280;48511;38.664;-9.202;2022-08-03T10:14:12;100449.94;;;25.51;58.60
62462;BME280;48511;38.664;-9.202;2022-08-03T10:16:19;100458.13;;;25.49;58.08
62462;BME280;48511;38.664;-9.202;2022-08-03T10:18:20;100462.94;;;25.70;57.33
62462;BME280;48511;38.664;-9.202;2022-08-03T10:20:20;100464.28;;;25.75;57.41
62462;BME280;48511;38.664;-9.202;2022-08-03T10:22:22;100463.13;;;25.69;57.97
62462;BME280;48511;38.664;-9.202;2022-08-03T10:24:25;100462.94;;;25.62;57.96
62462;BME280;48511;38.664;-9.202;2022-08-03T10:26:30;100463.44;;;25.66;57.92
62462;BME280;48511;38.664;-9.202;2022-08-03T10:28:38;100463.97;;;25.61;58.10
62462;BME280;48511;38.664;-9.202;2022-08-03T10:30:43;100461.78;;;25.73;57.59
62462;BME280;48511;38.664;-9.202;2022-08-03T10:32:56;100458.97;;;25.66;57.87
62462;BME280;48511;38.664;-9.202;2022-08-03T10:35:05;100465.94;;;25.67;57.82
62462;BME280;48511;38.664;-9.202;2022-08-03T10:37:08;100465.78;;;25.69;57.81
62462;BME280;48511;38.664;-9.202;2022-08-03T10:39:13;100468.91;;;25.89;57.55
62462;BME280;48511;38.664;-9.202;2022-08-03T10:41:16;100467.94;;;25.98;57.77
62462;BME280;48511;38.664;-9.202;2022-08-03T10:43:37;100464.44;;;25.90;57.54